Terminal Aerodrome Forecast
Issued by NWS

Home | Current Version | Previous Version | Text Only | Print | Product List | Glossary On
Versions: 1 2 3 4 5 6 7 8 9 10 11 12 13 14 15 16 17 18
000
FTUS46 KMFR 310543
TAFOTH
TAF
KOTH 310543Z 3106/0106 15004KT P6SM SCT020 SCT070
     FM311000 16004KT 5SM BR BKN015
     FM311600 27009KT P6SM SCT025
     FM010400 27005KT P6SM BKN012=

USA.gov is the U.S. government's official web portal to all federal, state and local government web resources and services.